Kezdőlap
METAR-TAF:

METAR-TAF

Repülőterek :

Voronyezs, Oroszország

földrajzi szélesség: 51-39N, földrajzi hosszúság: 039-15E, magasság: 154 m

Jelenlegi meteorológiai megfigyelések

A jelentés 30 perccel ezelõtt készült, 00:30 UTC
Nyugat-délnyugati szél 6 kt
Hőmérséklet -2°C
Páratartalom 80%
Légköri nyomás 1008 hPa
Látótávolság 10 km, vagy több
felhőtlen 1500 m magasságban, és nincs gomolyfelhõ

METAR: UUOO 290030Z 25003MPS CAVOK M02/M05 Q1008 R30/190055 NOSIG RMK QFE743

Idő: 04:00 (01:00 UTC)

Előrejelzés

A jelentés 2 órával és 0 perccel ezelõtt készült, 23:00 UTC
Az előrejelzés 29-én 00 óra UTC és 29-én 09 óra UTC között érvényes
Nyugat-délnyugati szél 8 kt
Látótávolság: 6000 m
Szakadozott felhőzet 2000 lábon

TAF: UUOO 282300Z 2900/2909 25004MPS 6000 BKN020

Meteorológiai megfigyelések és előrejelzések több, mint 4000 repülőtéren (METAR és TAF jelentéseket).

A térképen piros és sárga pontok jelzik az elérhető meteorológiai állomásokat.

Mozgassa az egeret a pont fölött, hogy megjelenjen az állomás neve.

Azután kattintson az időjárási megfigyelések és előrejelzések megtekintéséhez.

A térkép megváltoztatása: kattintson a fekete keresztel jelölt zöld gombra ráközelítéshez, a vonallal jelölt zöld gombra távolításhoz, vagy a zöld nyilakra a szomszédos térképek eléréséhez.


METAR-TAF: